sensor_id;sensor_type;location;lat;lon;timestamp;P1;durP1;ratioP1;P2;durP2;ratioP2
28523;SDS011;15734;50.904;6.922;2022-08-19T00:00:15;14.77;;;10.30;;
28523;SDS011;15734;50.904;6.922;2022-08-19T00:02:42;12.63;;;9.50;;
28523;SDS011;15734;50.904;6.922;2022-08-19T00:05:09;12.88;;;9.73;;
28523;SDS011;15734;50.904;6.922;2022-08-19T00:07:35;11.27;;;8.88;;
28523;SDS011;15734;50.904;6.922;2022-08-19T00:10:02;12.15;;;9.02;;
28523;SDS011;15734;50.904;6.922;2022-08-19T00:12:29;16.00;;;9.20;;
28523;SDS011;15734;50.904;6.922;2022-08-19T00:14:55;13.70;;;9.68;;
28523;SDS011;15734;50.904;6.922;2022-08-19T00:17:20;13.30;;;9.88;;
28523;SDS011;15734;50.904;6.922;2022-08-19T00:19:46;16.52;;;10.48;;
28523;SDS011;15734;50.904;6.922;2022-08-19T00:22:11;17.05;;;9.43;;
28523;SDS011;15734;50.904;6.922;2022-08-19T00:24:37;14.57;;;8.93;;
28523;SDS011;15734;50.904;6.922;2022-08-19T00:27:03;13.85;;;10.27;;
28523;SDS011;15734;50.904;6.922;2022-08-19T00:29:30;14.27;;;9.60;;
28523;SDS011;15734;50.904;6.922;2022-08-19T00:31:56;14.32;;;9.73;;
28523;SDS011;15734;50.904;6.922;2022-08-19T00:34:24;13.57;;;8.57;;
28523;SDS011;15734;50.904;6.922;2022-08-19T00:36:54;15.02;;;9.07;;
28523;SDS011;15734;50.904;6.922;2022-08-19T00:39:20;13.98;;;9.38;;
28523;SDS011;15734;50.904;6.922;2022-08-19T00:41:46;17.23;;;10.00;;
28523;SDS011;15734;50.904;6.922;2022-08-19T00:46:42;24.38;;;12.55;;
28523;SDS011;15734;50.904;6.922;2022-08-19T00:49:12;18.73;;;10.68;;
28523;SDS011;15734;50.904;6.922;2022-08-19T00:51:44;27.15;;;11.88;;
28523;SDS011;15734;50.904;6.922;2022-08-19T00:54:12;19.10;;;11.52;;
28523;SDS011;15734;50.904;6.922;2022-08-19T00:56:39;20.08;;;11.05;;
28523;SDS011;15734;50.904;6.922;2022-08-19T00:59:05;23.00;;;12.70;;
28523;SDS011;15734;50.904;6.922;2022-08-19T01:01:35;19.08;;;11.75;;
28523;SDS011;15734;50.904;6.922;2022-08-19T01:04:02;20.27;;;12.43;;
28523;SDS011;15734;50.904;6.922;2022-08-19T01:06:28;31.23;;;17.30;;
28523;SDS011;15734;50.904;6.922;2022-08-19T01:08:56;17.48;;;11.63;;
28523;SDS011;15734;50.904;6.922;2022-08-19T01:11:21;24.60;;;13.90;;
28523;SDS011;15734;50.904;6.922;2022-08-19T01:13:47;26.88;;;13.07;;
28523;SDS011;15734;50.904;6.922;2022-08-19T01:16:14;23.15;;;13.02;;
28523;SDS011;15734;50.904;6.922;2022-08-19T01:18:41;21.85;;;13.98;;
28523;SDS011;15734;50.904;6.922;2022-08-19T01:21:09;23.40;;;13.93;;
28523;SDS011;15734;50.904;6.922;2022-08-19T01:23:56;24.10;;;12.32;;
28523;SDS011;15734;50.904;6.922;2022-08-19T01:26:23;25.30;;;13.60;;
28523;SDS011;15734;50.904;6.922;2022-08-19T01:28:50;24.23;;;14.63;;
28523;SDS011;15734;50.904;6.922;2022-08-19T01:31:19;23.23;;;13.93;;
28523;SDS011;15734;50.904;6.922;2022-08-19T01:33:47;24.83;;;14.07;;
28523;SDS011;15734;50.904;6.922;2022-08-19T01:36:15;21.33;;;13.50;;
28523;SDS011;15734;50.904;6.922;2022-08-19T01:38:47;24.37;;;13.87;;
28523;SDS011;15734;50.904;6.922;2022-08-19T01:41:13;21.65;;;14.30;;
28523;SDS011;15734;50.904;6.922;2022-08-19T01:43:39;31.42;;;15.40;;
28523;SDS011;15734;50.904;6.922;2022-08-19T01:46:05;23.35;;;12.95;;
28523;SDS011;15734;50.904;6.922;2022-08-19T01:48:35;26.92;;;14.55;;
28523;SDS011;15734;50.904;6.922;2022-08-19T01:51:05;28.27;;;13.23;;
28523;SDS011;15734;50.904;6.922;2022-08-19T01:53:31;23.27;;;12.38;;
28523;SDS011;15734;50.904;6.922;2022-08-19T01:55:57;28.92;;;14.98;;
28523;SDS011;15734;50.904;6.922;2022-08-19T01:58:25;24.92;;;14.30;;
28523;SDS011;15734;50.904;6.922;2022-08-19T02:00:55;25.50;;;13.75;;
28523;SDS011;15734;50.904;6.922;2022-08-19T02:03:22;25.75;;;13.88;;
28523;SDS011;15734;50.904;6.922;2022-08-19T02:05:52;33.60;;;13.43;;
28523;SDS011;15734;50.904;6.922;2022-08-19T02:08:23;23.42;;;13.25;;
28523;SDS011;15734;50.904;6.922;2022-08-19T02:10:49;23.25;;;13.65;;
28523;SDS011;15734;50.904;6.922;2022-08-19T02:13:15;35.13;;;16.15;;
28523;SDS011;15734;50.904;6.922;2022-08-19T02:15:40;23.27;;;14.95;;
28523;SDS011;15734;50.904;6.922;2022-08-19T02:18:06;24.20;;;15.57;;
28523;SDS011;15734;50.904;6.922;2022-08-19T02:20:33;30.13;;;15.43;;
28523;SDS011;15734;50.904;6.922;2022-08-19T02:22:58;26.90;;;15.23;;
28523;SDS011;15734;50.904;6.922;2022-08-19T02:25:26;24.15;;;13.95;;
28523;SDS011;15734;50.904;6.922;2022-08-19T02:27:51;26.67;;;14.75;;
28523;SDS011;15734;50.904;6.922;2022-08-19T02:30:17;21.15;;;14.18;;
28523;SDS011;15734;50.904;6.922;2022-08-19T02:32:44;27.45;;;15.25;;
28523;SDS011;15734;50.904;6.922;2022-08-19T02:35:09;21.02;;;13.73;;
28523;SDS011;15734;50.904;6.922;2022-08-19T02:37:36;23.73;;;13.52;;
28523;SDS011;15734;50.904;6.922;2022-08-19T02:40:20;23.05;;;14.02;;
28523;SDS011;15734;50.904;6.922;2022-08-19T02:42:46;29.80;;;15.00;;
28523;SDS011;15734;50.904;6.922;2022-08-19T02:45:12;23.52;;;15.35;;
28523;SDS011;15734;50.904;6.922;2022-08-19T02:47:39;24.80;;;15.10;;
28523;SDS011;15734;50.904;6.922;2022-08-19T02:50:05;24.02;;;15.45;;
28523;SDS011;15734;50.904;6.922;2022-08-19T02:52:32;34.17;;;15.80;;
28523;SDS011;15734;50.904;6.922;2022-08-19T02:54:58;26.42;;;15.23;;
28523;SDS011;15734;50.904;6.922;2022-08-19T02:57:25;24.92;;;14.40;;
28523;SDS011;15734;50.904;6.922;2022-08-19T02:59:51;22.60;;;14.25;;
28523;SDS011;15734;50.904;6.922;2022-08-19T03:02:17;24.38;;;14.35;;
28523;SDS011;15734;50.904;6.922;2022-08-19T03:04:42;22.63;;;14.38;;
28523;SDS011;15734;50.904;6.922;2022-08-19T03:07:08;22.13;;;13.65;;
28523;SDS011;15734;50.904;6.922;2022-08-19T03:09:36;25.42;;;14.57;;
28523;SDS011;15734;50.904;6.922;2022-08-19T03:12:03;22.45;;;14.20;;
28523;SDS011;15734;50.904;6.922;2022-08-19T03:14:32;25.25;;;15.20;;
28523;SDS011;15734;50.904;6.922;2022-08-19T03:16:58;25.90;;;14.27;;
28523;SDS011;15734;50.904;6.922;2022-08-19T03:19:25;23.83;;;14.35;;
28523;SDS011;15734;50.904;6.922;2022-08-19T03:21:51;29.23;;;16.55;;
28523;SDS011;15734;50.904;6.922;2022-08-19T03:24:17;26.50;;;15.73;;
28523;SDS011;15734;50.904;6.922;2022-08-19T03:26:45;28.70;;;17.42;;
28523;SDS011;15734;50.904;6.922;2022-08-19T03:29:16;26.45;;;15.77;;
28523;SDS011;15734;50.904;6.922;2022-08-19T03:31:42;30.00;;;16.35;;
28523;SDS011;15734;50.904;6.922;2022-08-19T03:34:22;32.33;;;16.73;;
28523;SDS011;15734;50.904;6.922;2022-08-19T03:36:51;27.38;;;16.23;;
28523;SDS011;15734;50.904;6.922;2022-08-19T03:39:19;28.52;;;16.02;;
28523;SDS011;15734;50.904;6.922;2022-08-19T03:41:45;27.13;;;16.05;;
28523;SDS011;15734;50.904;6.922;2022-08-19T03:44:15;29.55;;;17.08;;
28523;SDS011;15734;50.904;6.922;2022-08-19T03:46:45;30.13;;;16.88;;
28523;SDS011;15734;50.904;6.922;2022-08-19T03:49:12;28.35;;;16.45;;
28523;SDS011;15734;50.904;6.922;2022-08-19T03:51:38;30.67;;;17.45;;
28523;SDS011;15734;50.904;6.922;2022-08-19T03:54:05;29.60;;;17.85;;
28523;SDS011;15734;50.904;6.922;2022-08-19T03:56:34;29.38;;;15.77;;
28523;SDS011;15734;50.904;6.922;2022-08-19T03:59:00;25.45;;;17.75;;
28523;SDS011;15734;50.904;6.922;2022-08-19T04:01:27;27.98;;;17.70;;
28523;SDS011;15734;50.904;6.922;2022-08-19T04:03:53;27.85;;;17.13;;
28523;SDS011;15734;50.904;6.922;2022-08-19T04:06:20;31.58;;;18.45;;
28523;SDS011;15734;50.904;6.922;2022-08-19T04:08:48;30.38;;;18.20;;
28523;SDS011;15734;50.904;6.922;2022-08-19T04:11:16;30.80;;;20.17;;
28523;SDS011;15734;50.904;6.922;2022-08-19T04:13:47;24.35;;;17.20;;
28523;SDS011;15734;50.904;6.922;2022-08-19T04:16:15;29.67;;;17.60;;
28523;SDS011;15734;50.904;6.922;2022-08-19T04:18:42;31.17;;;19.08;;
28523;SDS011;15734;50.904;6.922;2022-08-19T04:21:08;35.67;;;20.90;;
28523;SDS011;15734;50.904;6.922;2022-08-19T04:23:42;31.95;;;17.55;;
28523;SDS011;15734;50.904;6.922;2022-08-19T04:26:11;30.88;;;19.60;;
28523;SDS011;15734;50.904;6.922;2022-08-19T04:28:39;31.25;;;18.30;;
28523;SDS011;15734;50.904;6.922;2022-08-19T04:31:04;31.30;;;18.15;;
28523;SDS011;15734;50.904;6.922;2022-08-19T04:33:30;38.72;;;20.95;;
28523;SDS011;15734;50.904;6.922;2022-08-19T04:35:56;36.70;;;22.02;;
28523;SDS011;15734;50.904;6.922;2022-08-19T04:38:23;36.17;;;21.02;;
28523;SDS011;15734;50.904;6.922;2022-08-19T04:40:49;32.67;;;19.38;;
28523;SDS011;15734;50.904;6.922;2022-08-19T04:43:35;37.97;;;21.48;;
28523;SDS011;15734;50.904;6.922;2022-08-19T04:46:10;33.58;;;21.50;;
28523;SDS011;15734;50.904;6.922;2022-08-19T04:51:05;33.92;;;21.27;;
28523;SDS011;15734;50.904;6.922;2022-08-19T04:53:33;38.75;;;22.02;;
28523;SDS011;15734;50.904;6.922;2022-08-19T04:56:04;31.30;;;18.45;;
28523;SDS011;15734;50.904;6.922;2022-08-19T04:58:42;36.75;;;21.67;;
28523;SDS011;15734;50.904;6.922;2022-08-19T05:01:10;31.20;;;19.17;;
28523;SDS011;15734;50.904;6.922;2022-08-19T05:03:38;38.60;;;22.23;;
28523;SDS011;15734;50.904;6.922;2022-08-19T05:06:07;34.42;;;21.88;;
28523;SDS011;15734;50.904;6.922;2022-08-19T05:08:36;41.33;;;24.10;;
28523;SDS011;15734;50.904;6.922;2022-08-19T05:11:12;41.60;;;24.75;;
28523;SDS011;15734;50.904;6.922;2022-08-19T05:13:39;34.00;;;22.45;;
28523;SDS011;15734;50.904;6.922;2022-08-19T05:16:06;34.47;;;20.10;;
28523;SDS011;15734;50.904;6.922;2022-08-19T05:18:31;40.05;;;21.23;;
28523;SDS011;15734;50.904;6.922;2022-08-19T05:21:16;38.20;;;24.17;;
28523;SDS011;15734;50.904;6.922;2022-08-19T05:24:02;48.15;;;30.45;;
28523;SDS011;15734;50.904;6.922;2022-08-19T05:26:32;55.63;;;32.67;;
28523;SDS011;15734;50.904;6.922;2022-08-19T05:28:58;59.13;;;34.95;;
28523;SDS011;15734;50.904;6.922;2022-08-19T05:31:23;63.85;;;35.50;;
28523;SDS011;15734;50.904;6.922;2022-08-19T05:33:49;55.72;;;34.88;;
28523;SDS011;15734;50.904;6.922;2022-08-19T05:36:15;58.17;;;36.22;;
28523;SDS011;15734;50.904;6.922;2022-08-19T05:38:40;52.60;;;33.00;;
28523;SDS011;15734;50.904;6.922;2022-08-19T05:41:07;57.08;;;35.70;;
28523;SDS011;15734;50.904;6.922;2022-08-19T05:43:37;62.78;;;34.20;;
28523;SDS011;15734;50.904;6.922;2022-08-19T05:46:06;62.47;;;34.63;;
28523;SDS011;15734;50.904;6.922;2022-08-19T05:48:33;57.80;;;35.13;;
28523;SDS011;15734;50.904;6.922;2022-08-19T05:51:06;55.15;;;32.80;;
28523;SDS011;15734;50.904;6.922;2022-08-19T05:53:33;67.30;;;36.80;;
28523;SDS011;15734;50.904;6.922;2022-08-19T05:56:05;63.08;;;36.95;;
28523;SDS011;15734;50.904;6.922;2022-08-19T05:58:36;68.85;;;35.95;;
28523;SDS011;15734;50.904;6.922;2022-08-19T06:01:03;60.33;;;35.20;;
28523;SDS011;15734;50.904;6.922;2022-08-19T06:03:33;58.22;;;36.20;;
28523;SDS011;15734;50.904;6.922;2022-08-19T06:05:59;55.58;;;34.17;;
28523;SDS011;15734;50.904;6.922;2022-08-19T06:08:26;56.55;;;34.35;;
28523;SDS011;15734;50.904;6.922;2022-08-19T06:10:52;61.30;;;35.13;;
28523;SDS011;15734;50.904;6.922;2022-08-19T06:13:18;55.63;;;34.80;;
28523;SDS011;15734;50.904;6.922;2022-08-19T06:15:44;54.90;;;33.47;;
28523;SDS011;15734;50.904;6.922;2022-08-19T06:18:11;61.17;;;35.28;;
28523;SDS011;15734;50.904;6.922;2022-08-19T06:20:37;58.28;;;35.45;;
28523;SDS011;15734;50.904;6.922;2022-08-19T06:23:03;54.25;;;34.75;;
28523;SDS011;15734;50.904;6.922;2022-08-19T06:25:29;70.95;;;36.47;;
28523;SDS011;15734;50.904;6.922;2022-08-19T06:27:55;61.67;;;35.58;;
28523;SDS011;15734;50.904;6.922;2022-08-19T06:30:20;63.35;;;38.83;;
28523;SDS011;15734;50.904;6.922;2022-08-19T06:32:46;66.53;;;39.75;;
28523;SDS011;15734;50.904;6.922;2022-08-19T06:35:12;66.80;;;37.63;;
28523;SDS011;15734;50.904;6.922;2022-08-19T06:37:39;62.17;;;37.85;;
28523;SDS011;15734;50.904;6.922;2022-08-19T06:40:05;59.45;;;37.95;;
28523;SDS011;15734;50.904;6.922;2022-08-19T06:42:33;59.28;;;37.03;;
28523;SDS011;15734;50.904;6.922;2022-08-19T06:45:00;59.65;;;33.55;;
28523;SDS011;15734;50.904;6.922;2022-08-19T06:47:29;66.07;;;38.40;;
28523;SDS011;15734;50.904;6.922;2022-08-19T06:49:56;60.10;;;36.60;;
28523;SDS011;15734;50.904;6.922;2022-08-19T06:52:25;68.43;;;35.03;;
28523;SDS011;15734;50.904;6.922;2022-08-19T06:54:50;62.60;;;37.50;;
28523;SDS011;15734;50.904;6.922;2022-08-19T06:57:16;62.03;;;35.85;;
28523;SDS011;15734;50.904;6.922;2022-08-19T06:59:41;62.53;;;35.45;;
28523;SDS011;15734;50.904;6.922;2022-08-19T07:02:07;55.75;;;34.28;;
28523;SDS011;15734;50.904;6.922;2022-08-19T07:04:34;62.15;;;35.63;;
28523;SDS011;15734;50.904;6.922;2022-08-19T07:07:02;58.15;;;34.47;;
28523;SDS011;15734;50.904;6.922;2022-08-19T07:09:33;62.50;;;34.17;;
28523;SDS011;15734;50.904;6.922;2022-08-19T07:11:59;59.15;;;33.13;;
28523;SDS011;15734;50.904;6.922;2022-08-19T07:14:26;60.13;;;34.00;;
28523;SDS011;15734;50.904;6.922;2022-08-19T07:16:52;59.63;;;34.22;;
28523;SDS011;15734;50.904;6.922;2022-08-19T07:19:20;55.65;;;32.97;;
28523;SDS011;15734;50.904;6.922;2022-08-19T07:21:47;59.40;;;34.15;;
28523;SDS011;15734;50.904;6.922;2022-08-19T07:24:15;57.13;;;32.45;;
28523;SDS011;15734;50.904;6.922;2022-08-19T07:26:42;63.05;;;34.65;;
28523;SDS011;15734;50.904;6.922;2022-08-19T07:29:09;58.95;;;33.40;;
28523;SDS011;15734;50.904;6.922;2022-08-19T07:31:35;66.53;;;33.17;;
28523;SDS011;15734;50.904;6.922;2022-08-19T07:34:02;59.90;;;33.67;;
28523;SDS011;15734;50.904;6.922;2022-08-19T07:36:33;62.13;;;32.10;;
28523;SDS011;15734;50.904;6.922;2022-08-19T07:39:03;56.60;;;32.35;;
28523;SDS011;15734;50.904;6.922;2022-08-19T07:41:31;58.92;;;32.22;;
28523;SDS011;15734;50.904;6.922;2022-08-19T07:43:58;66.43;;;34.70;;
28523;SDS011;15734;50.904;6.922;2022-08-19T07:46:28;54.28;;;31.58;;
28523;SDS011;15734;50.904;6.922;2022-08-19T07:48:57;58.53;;;35.53;;
28523;SDS011;15734;50.904;6.922;2022-08-19T07:51:23;64.85;;;35.45;;
28523;SDS011;15734;50.904;6.922;2022-08-19T07:53:49;70.65;;;37.17;;
28523;SDS011;15734;50.904;6.922;2022-08-19T07:56:15;68.78;;;37.17;;
28523;SDS011;15734;50.904;6.922;2022-08-19T07:58:43;66.82;;;36.40;;
28523;SDS011;15734;50.904;6.922;2022-08-19T08:01:14;71.18;;;37.00;;
28523;SDS011;15734;50.904;6.922;2022-08-19T08:03:42;65.00;;;36.33;;
28523;SDS011;15734;50.904;6.922;2022-08-19T08:06:26;66.28;;;38.08;;
28523;SDS011;15734;50.904;6.922;2022-08-19T08:09:11;68.40;;;37.13;;
28523;SDS011;15734;50.904;6.922;2022-08-19T08:14:21;66.30;;;36.28;;
28523;SDS011;15734;50.904;6.922;2022-08-19T08:16:56;76.28;;;38.35;;
28523;SDS011;15734;50.904;6.922;2022-08-19T08:19:23;76.90;;;39.80;;
28523;SDS011;15734;50.904;6.922;2022-08-19T08:21:50;66.53;;;35.47;;
28523;SDS011;15734;50.904;6.922;2022-08-19T08:24:17;75.63;;;38.13;;
28523;SDS011;15734;50.904;6.922;2022-08-19T08:26:43;69.95;;;36.17;;
28523;SDS011;15734;50.904;6.922;2022-08-19T08:29:11;72.07;;;36.60;;
28523;SDS011;15734;50.904;6.922;2022-08-19T08:31:39;64.95;;;37.50;;
28523;SDS011;15734;50.904;6.922;2022-08-19T08:34:05;71.05;;;37.88;;
28523;SDS011;15734;50.904;6.922;2022-08-19T08:36:31;75.78;;;40.88;;
28523;SDS011;15734;50.904;6.922;2022-08-19T08:39:00;78.68;;;37.13;;
28523;SDS011;15734;50.904;6.922;2022-08-19T08:41:36;78.47;;;38.38;;
28523;SDS011;15734;50.904;6.922;2022-08-19T08:44:16;77.60;;;39.53;;
28523;SDS011;15734;50.904;6.922;2022-08-19T08:46:47;78.95;;;38.08;;
28523;SDS011;15734;50.904;6.922;2022-08-19T08:49:19;75.03;;;39.05;;
28523;SDS011;15734;50.904;6.922;2022-08-19T08:51:52;81.20;;;38.35;;
28523;SDS011;15734;50.904;6.922;2022-08-19T08:54:32;77.65;;;37.65;;
28523;SDS011;15734;50.904;6.922;2022-08-19T08:57:02;85.28;;;43.03;;
28523;SDS011;15734;50.904;6.922;2022-08-19T08:59:30;84.53;;;39.88;;
28523;SDS011;15734;50.904;6.922;2022-08-19T09:01:58;76.25;;;38.10;;
28523;SDS011;15734;50.904;6.922;2022-08-19T09:04:24;82.72;;;37.92;;
28523;SDS011;15734;50.904;6.922;2022-08-19T09:07:02;68.10;;;37.83;;
28523;SDS011;15734;50.904;6.922;2022-08-19T09:09:50;70.32;;;36.13;;
28523;SDS011;15734;50.904;6.922;2022-08-19T09:15:10;68.38;;;36.30;;
28523;SDS011;15734;50.904;6.922;2022-08-19T09:17:38;71.07;;;37.28;;
28523;SDS011;15734;50.904;6.922;2022-08-19T09:20:05;65.95;;;35.95;;
28523;SDS011;15734;50.904;6.922;2022-08-19T09:22:34;59.00;;;32.53;;
28523;SDS011;15734;50.904;6.922;2022-08-19T09:25:00;58.85;;;31.80;;
28523;SDS011;15734;50.904;6.922;2022-08-19T09:27:28;52.33;;;29.13;;
28523;SDS011;15734;50.904;6.922;2022-08-19T09:29:54;47.15;;;28.00;;
28523;SDS011;15734;50.904;6.922;2022-08-19T09:32:20;42.42;;;25.23;;
28523;SDS011;15734;50.904;6.922;2022-08-19T09:34:47;44.40;;;25.38;;
28523;SDS011;15734;50.904;6.922;2022-08-19T09:37:13;44.25;;;26.52;;
28523;SDS011;15734;50.904;6.922;2022-08-19T09:39:39;42.30;;;26.13;;
28523;SDS011;15734;50.904;6.922;2022-08-19T09:42:06;40.45;;;23.92;;
28523;SDS011;15734;50.904;6.922;2022-08-19T09:44:38;43.47;;;24.17;;
28523;SDS011;15734;50.904;6.922;2022-08-19T09:47:05;32.72;;;20.30;;
28523;SDS011;15734;50.904;6.922;2022-08-19T09:49:31;39.08;;;20.65;;
28523;SDS011;15734;50.904;6.922;2022-08-19T09:51:58;51.38;;;24.88;;
28523;SDS011;15734;50.904;6.922;2022-08-19T09:54:23;33.70;;;22.20;;
28523;SDS011;15734;50.904;6.922;2022-08-19T09:56:49;35.13;;;20.77;;
28523;SDS011;15734;50.904;6.922;2022-08-19T09:59:15;47.22;;;25.60;;
28523;SDS011;15734;50.904;6.922;2022-08-19T10:01:41;34.45;;;20.15;;
28523;SDS011;15734;50.904;6.922;2022-08-19T10:04:06;34.85;;;22.48;;
28523;SDS011;15734;50.904;6.922;2022-08-19T10:06:36;32.67;;;20.83;;
28523;SDS011;15734;50.904;6.922;2022-08-19T10:09:04;34.83;;;22.17;;
28523;SDS011;15734;50.904;6.922;2022-08-19T10:11:32;31.90;;;21.38;;
28523;SDS011;15734;50.904;6.922;2022-08-19T10:14:00;27.02;;;17.42;;
28523;SDS011;15734;50.904;6.922;2022-08-19T10:16:26;26.90;;;17.42;;
28523;SDS011;15734;50.904;6.922;2022-08-19T10:18:53;29.73;;;19.80;;
28523;SDS011;15734;50.904;6.922;2022-08-19T10:21:23;22.13;;;14.88;;
28523;SDS011;15734;50.904;6.922;2022-08-19T10:23:52;19.70;;;11.85;;
28523;SDS011;15734;50.904;6.922;2022-08-19T10:26:24;27.60;;;17.38;;
28523;SDS011;15734;50.904;6.922;2022-08-19T10:28:55;23.05;;;15.23;;
28523;SDS011;15734;50.904;6.922;2022-08-19T10:31:23;26.73;;;14.57;;
28523;SDS011;15734;50.904;6.922;2022-08-19T10:33:51;19.67;;;12.55;;
28523;SDS011;15734;50.904;6.922;2022-08-19T10:36:22;17.90;;;13.10;;
28523;SDS011;15734;50.904;6.922;2022-08-19T10:38:54;17.60;;;12.60;;
28523;SDS011;15734;50.904;6.922;2022-08-19T10:41:24;27.83;;;17.45;;
28523;SDS011;15734;50.904;6.922;2022-08-19T10:43:52;20.75;;;13.88;;
28523;SDS011;15734;50.904;6.922;2022-08-19T10:46:19;26.77;;;13.85;;
28523;SDS011;15734;50.904;6.922;2022-08-19T10:48:47;24.65;;;14.75;;
28523;SDS011;15734;50.904;6.922;2022-08-19T10:51:13;19.38;;;13.98;;
28523;SDS011;15734;50.904;6.922;2022-08-19T10:53:58;20.80;;;13.23;;
28523;SDS011;15734;50.904;6.922;2022-08-19T10:56:24;26.77;;;15.30;;
28523;SDS011;15734;50.904;6.922;2022-08-19T10:59:09;17.65;;;12.98;;
28523;SDS011;15734;50.904;6.922;2022-08-19T11:01:37;25.75;;;17.50;;
28523;SDS011;15734;50.904;6.922;2022-08-19T11:04:03;27.92;;;17.55;;
28523;SDS011;15734;50.904;6.922;2022-08-19T11:06:31;38.70;;;19.00;;
28523;SDS011;15734;50.904;6.922;2022-08-19T11:08:57;25.10;;;16.75;;
28523;SDS011;15734;50.904;6.922;2022-08-19T11:11:24;25.83;;;15.35;;
28523;SDS011;15734;50.904;6.922;2022-08-19T11:13:51;27.35;;;16.67;;
28523;SDS011;15734;50.904;6.922;2022-08-19T11:16:21;22.25;;;15.55;;
28523;SDS011;15734;50.904;6.922;2022-08-19T11:18:49;24.70;;;15.48;;
28523;SDS011;15734;50.904;6.922;2022-08-19T11:21:18;25.15;;;13.93;;
28523;SDS011;15734;50.904;6.922;2022-08-19T11:23:44;18.25;;;12.85;;
28523;SDS011;15734;50.904;6.922;2022-08-19T11:26:12;21.10;;;14.02;;
28523;SDS011;15734;50.904;6.922;2022-08-19T11:28:39;19.48;;;12.40;;
28523;SDS011;15734;50.904;6.922;2022-08-19T11:31:12;16.02;;;12.23;;
28523;SDS011;15734;50.904;6.922;2022-08-19T11:33:39;15.98;;;12.35;;
28523;SDS011;15734;50.904;6.922;2022-08-19T11:36:05;15.23;;;11.00;;
28523;SDS011;15734;50.904;6.922;2022-08-19T11:38:32;20.48;;;12.48;;
28523;SDS011;15734;50.904;6.922;2022-08-19T11:41:02;21.17;;;12.63;;
28523;SDS011;15734;50.904;6.922;2022-08-19T11:43:30;22.30;;;13.55;;
28523;SDS011;15734;50.904;6.922;2022-08-19T11:45:56;20.45;;;12.77;;
28523;SDS011;15734;50.904;6.922;2022-08-19T11:48:22;18.77;;;13.25;;
28523;SDS011;15734;50.904;6.922;2022-08-19T11:50:49;17.52;;;12.40;;
28523;SDS011;15734;50.904;6.922;2022-08-19T11:53:17;19.52;;;12.88;;
28523;SDS011;15734;50.904;6.922;2022-08-19T11:55:45;18.42;;;12.80;;
28523;SDS011;15734;50.904;6.922;2022-08-19T11:58:11;15.95;;;11.68;;
28523;SDS011;15734;50.904;6.922;2022-08-19T12:00:38;22.75;;;13.25;;
28523;SDS011;15734;50.904;6.922;2022-08-19T12:03:05;25.63;;;12.70;;
28523;SDS011;15734;50.904;6.922;2022-08-19T12:05:30;17.92;;;12.93;;
28523;SDS011;15734;50.904;6.922;2022-08-19T12:07:56;26.55;;;13.68;;
28523;SDS011;15734;50.904;6.922;2022-08-19T12:10:22;15.88;;;11.27;;
28523;SDS011;15734;50.904;6.922;2022-08-19T12:12:48;15.98;;;10.68;;
28523;SDS011;15734;50.904;6.922;2022-08-19T12:15:13;14.52;;;11.18;;
28523;SDS011;15734;50.904;6.922;2022-08-19T12:17:43;16.58;;;10.23;;
28523;SDS011;15734;50.904;6.922;2022-08-19T12:20:09;13.48;;;9.05;;
28523;SDS011;15734;50.904;6.922;2022-08-19T12:22:38;13.57;;;8.93;;
28523;SDS011;15734;50.904;6.922;2022-08-19T12:25:06;16.40;;;8.73;;
28523;SDS011;15734;50.904;6.922;2022-08-19T12:27:33;11.95;;;8.77;;
28523;SDS011;15734;50.904;6.922;2022-08-19T12:30:00;12.93;;;8.18;;
28523;SDS011;15734;50.904;6.922;2022-08-19T12:32:27;16.50;;;8.90;;
28523;SDS011;15734;50.904;6.922;2022-08-19T12:34:53;13.73;;;8.68;;
28523;SDS011;15734;50.904;6.922;2022-08-19T12:37:19;16.77;;;8.02;;
28523;SDS011;15734;50.904;6.922;2022-08-19T12:39:45;14.52;;;9.02;;
28523;SDS011;15734;50.904;6.922;2022-08-19T12:42:11;14.13;;;8.77;;
28523;SDS011;15734;50.904;6.922;2022-08-19T12:44:39;16.83;;;10.35;;
28523;SDS011;15734;50.904;6.922;2022-08-19T12:47:06;16.58;;;10.20;;
28523;SDS011;15734;50.904;6.922;2022-08-19T12:49:33;19.38;;;10.13;;
28523;SDS011;15734;50.904;6.922;2022-08-19T12:52:01;19.50;;;12.60;;
28523;SDS011;15734;50.904;6.922;2022-08-19T12:54:30;19.83;;;11.93;;
28523;SDS011;15734;50.904;6.922;2022-08-19T12:56:56;20.52;;;10.88;;
28523;SDS011;15734;50.904;6.922;2022-08-19T12:59:22;19.08;;;11.00;;
28523;SDS011;15734;50.904;6.922;2022-08-19T13:01:48;13.75;;;10.13;;
28523;SDS011;15734;50.904;6.922;2022-08-19T13:04:14;15.90;;;11.00;;
28523;SDS011;15734;50.904;6.922;2022-08-19T13:06:41;12.85;;;9.63;;
28523;SDS011;15734;50.904;6.922;2022-08-19T13:09:07;13.88;;;9.40;;
28523;SDS011;15734;50.904;6.922;2022-08-19T13:11:32;11.70;;;8.95;;
28523;SDS011;15734;50.904;6.922;2022-08-19T13:13:58;16.95;;;9.63;;
28523;SDS011;15734;50.904;6.922;2022-08-19T13:16:25;12.80;;;8.70;;
28523;SDS011;15734;50.904;6.922;2022-08-19T13:18:53;13.68;;;9.80;;
28523;SDS011;15734;50.904;6.922;2022-08-19T13:21:21;13.15;;;9.20;;
28523;SDS011;15734;50.904;6.922;2022-08-19T13:23:49;11.77;;;8.55;;
28523;SDS011;15734;50.904;6.922;2022-08-19T13:26:16;13.10;;;8.60;;
28523;SDS011;15734;50.904;6.922;2022-08-19T13:28:42;13.50;;;9.18;;
28523;SDS011;15734;50.904;6.922;2022-08-19T13:31:39;17.25;;;9.07;;
28523;SDS011;15734;50.904;6.922;2022-08-19T13:34:32;15.95;;;8.32;;
28523;SDS011;15734;50.904;6.922;2022-08-19T13:37:00;11.50;;;7.63;;
28523;SDS011;15734;50.904;6.922;2022-08-19T13:39:28;12.82;;;8.38;;
28523;SDS011;15734;50.904;6.922;2022-08-19T13:41:54;11.60;;;7.70;;
28523;SDS011;15734;50.904;6.922;2022-08-19T13:44:20;14.55;;;7.57;;
28523;SDS011;15734;50.904;6.922;2022-08-19T13:46:47;14.23;;;9.02;;
28523;SDS011;15734;50.904;6.922;2022-08-19T13:49:14;12.40;;;8.02;;
28523;SDS011;15734;50.904;6.922;2022-08-19T13:51:40;12.35;;;8.02;;
28523;SDS011;15734;50.904;6.922;2022-08-19T13:54:07;14.75;;;8.55;;
28523;SDS011;15734;50.904;6.922;2022-08-19T13:56:34;16.58;;;8.40;;
28523;SDS011;15734;50.904;6.922;2022-08-19T13:59:00;14.35;;;8.90;;
28523;SDS011;15734;50.904;6.922;2022-08-19T14:01:26;14.63;;;8.68;;
28523;SDS011;15734;50.904;6.922;2022-08-19T14:03:52;16.00;;;8.55;;
28523;SDS011;15734;50.904;6.922;2022-08-19T14:06:18;16.48;;;8.82;;
28523;SDS011;15734;50.904;6.922;2022-08-19T14:08:45;10.60;;;7.85;;
28523;SDS011;15734;50.904;6.922;2022-08-19T14:11:10;10.50;;;6.70;;
28523;SDS011;15734;50.904;6.922;2022-08-19T14:13:36;13.80;;;9.13;;
28523;SDS011;15734;50.904;6.922;2022-08-19T14:16:06;16.02;;;9.57;;
28523;SDS011;15734;50.904;6.922;2022-08-19T14:18:35;10.68;;;6.47;;
28523;SDS011;15734;50.904;6.922;2022-08-19T14:21:01;11.25;;;6.40;;
28523;SDS011;15734;50.904;6.922;2022-08-19T14:23:28;21.67;;;6.70;;
28523;SDS011;15734;50.904;6.922;2022-08-19T14:25:53;12.55;;;7.72;;
28523;SDS011;15734;50.904;6.922;2022-08-19T14:28:32;15.35;;;7.50;;
28523;SDS011;15734;50.904;6.922;2022-08-19T14:30:58;12.90;;;6.78;;
28523;SDS011;15734;50.904;6.922;2022-08-19T14:33:23;10.70;;;7.70;;
28523;SDS011;15734;50.904;6.922;2022-08-19T14:35:49;12.98;;;7.43;;
28523;SDS011;15734;50.904;6.922;2022-08-19T14:38:15;9.38;;;6.45;;